Terminal Aerodrome Forecast
Issued by NWS

Home | Current Version | Previous Version | Text Only | Print | Product List | Glossary On
Versions: 1 2 3 4 5 6 7 8 9 10 11 12 13 14
000
FTPA31 PHFO 202338
TAFMDY
TAF
PMDY 202338Z 2100/2124 06015G23KT P6SM SCT035
     FM210300 10018G28KT P6SM SCT035
     FM211700 15018G28KT P6SM SCT035=

USA.gov is the U.S. government's official web portal to all federal, state and local government web resources and services.